createdAt,value
2018-07-11T00:00:57.780Z,99.90
2018-07-11T00:03:01.899Z,99.90
2018-07-11T00:05:05.802Z,99.90
2018-07-11T00:07:09.739Z,99.90
2018-07-11T00:09:13.564Z,99.90
2018-07-11T00:11:17.567Z,99.90
2018-07-11T00:13:21.362Z,99.90
2018-07-11T00:15:25.349Z,99.90
2018-07-11T00:17:29.197Z,99.90
2018-07-11T00:19:33.244Z,99.90
2018-07-11T00:21:37.322Z,99.90
2018-07-11T00:23:41.360Z,99.90
2018-07-11T00:25:45.279Z,99.90
2018-07-11T00:27:49.303Z,99.90
2018-07-11T00:34:00.464Z,99.90
2018-07-11T00:36:04.557Z,99.90
2018-07-11T00:38:08.484Z,99.90
2018-07-11T00:40:12.574Z,99.90
2018-07-11T00:42:16.505Z,99.90
2018-07-11T00:44:20.551Z,99.90
2018-07-11T00:46:25.785Z,99.90
2018-07-11T00:48:29.823Z,99.90
2018-07-11T00:50:33.895Z,99.90
2018-07-11T00:52:37.809Z,99.90
2018-07-11T00:54:41.927Z,99.90
2018-07-11T00:56:45.748Z,99.90
2018-07-11T00:58:59.495Z,99.90
2018-07-11T01:01:07.477Z,99.90
2018-07-11T01:03:11.472Z,99.90
2018-07-11T01:05:15.388Z,99.90
2018-07-11T01:07:19.423Z,99.90
2018-07-11T01:09:23.383Z,99.90
2018-07-11T01:11:32.275Z,99.90
2018-07-11T01:13:36.934Z,99.90
2018-07-11T01:15:40.849Z,99.90
2018-07-11T01:17:50.239Z,99.90
2018-07-11T01:19:54.280Z,99.90
2018-07-11T01:24:05.826Z,99.90
2018-07-11T01:26:09.748Z,99.90
2018-07-11T01:28:13.676Z,99.90
2018-07-11T01:30:17.483Z,99.90
2018-07-11T01:32:21.450Z,99.90
2018-07-11T01:34:25.281Z,99.90
2018-07-11T01:36:29.945Z,99.90
2018-07-11T01:38:33.792Z,99.90
2018-07-11T01:40:37.766Z,99.90
2018-07-11T01:42:41.782Z,99.90
2018-07-11T01:44:45.818Z,99.90
2018-07-11T01:46:51.901Z,99.90
2018-07-11T01:48:55.831Z,99.90
2018-07-11T01:50:59.742Z,99.90
2018-07-11T01:53:03.728Z,99.90
2018-07-11T01:55:07.680Z,99.90
2018-07-11T01:57:11.891Z,99.90
2018-07-11T01:59:15.806Z,99.90
2018-07-11T02:01:19.854Z,99.90
2018-07-11T02:03:23.802Z,99.90
2018-07-11T02:05:28.499Z,99.90
2018-07-11T02:07:34.001Z,99.90
2018-07-11T02:09:39.535Z,99.90
2018-07-11T02:11:47.178Z,99.90
2018-07-11T02:13:53.106Z,99.90
2018-07-11T02:15:59.521Z,99.90
2018-07-11T02:18:04.446Z,99.90
2018-07-11T02:20:14.945Z,99.90
2018-07-11T02:22:18.998Z,99.90
2018-07-11T02:24:23.902Z,99.90
2018-07-11T02:26:27.971Z,99.90
2018-07-11T02:28:32.367Z,99.90
2018-07-11T02:30:36.750Z,99.90
2018-07-11T02:32:40.799Z,99.90
2018-07-11T02:34:44.886Z,99.90
2018-07-11T02:36:48.828Z,99.90
2018-07-11T02:38:56.518Z,99.90
2018-07-11T02:41:00.431Z,99.90
2018-07-11T02:43:04.260Z,99.90
2018-07-11T02:45:08.279Z,99.90
2018-07-11T02:47:18.227Z,99.90
2018-07-11T02:49:22.241Z,99.90
2018-07-11T02:51:26.191Z,99.90
2018-07-11T02:53:30.272Z,99.90
2018-07-11T02:55:34.074Z,99.90
2018-07-11T02:57:38.070Z,99.90
2018-07-11T02:59:41.963Z,99.90
2018-07-11T03:01:45.897Z,99.90
2018-07-11T03:03:50.097Z,99.90
2018-07-11T03:05:54.363Z,99.90
2018-07-11T03:07:58.253Z,99.90
2018-07-11T03:10:02.205Z,99.90
2018-07-11T03:12:06.137Z,99.90
2018-07-11T03:14:10.127Z,99.90
2018-07-11T03:16:14.034Z,99.90
2018-07-11T03:18:18.113Z,99.90
2018-07-11T03:20:21.959Z,99.90
2018-07-11T03:22:25.975Z,99.90
2018-07-11T03:24:29.799Z,99.90
2018-07-11T03:26:33.877Z,99.90
2018-07-11T03:28:37.788Z,99.90
2018-07-11T03:30:41.826Z,99.90
2018-07-11T03:32:45.670Z,99.90
2018-07-11T03:34:49.688Z,99.90
2018-07-11T03:36:53.522Z,99.90
2018-07-11T03:38:57.490Z,99.90
2018-07-11T03:41:01.446Z,99.90
2018-07-11T03:43:05.409Z,99.90
2018-07-11T03:45:20.956Z,99.90
2018-07-11T03:47:24.908Z,99.90
2018-07-11T03:49:28.786Z,99.90
2018-07-11T03:51:32.735Z,99.90
2018-07-11T03:53:36.555Z,99.90
2018-07-11T03:55:40.627Z,99.90
2018-07-11T03:57:44.449Z,99.90
2018-07-11T03:59:48.402Z,99.90
2018-07-11T04:01:52.282Z,99.90
2018-07-11T04:03:56.441Z,99.90
2018-07-11T04:06:00.440Z,99.90
2018-07-11T04:08:04.601Z,99.90
2018-07-11T04:10:08.560Z,99.90
2018-07-11T04:12:12.748Z,99.90
2018-07-11T04:14:16.568Z,99.90
2018-07-11T04:16:20.513Z,99.90
2018-07-11T04:18:27.378Z,99.90
2018-07-11T04:20:31.279Z,99.90
2018-07-11T04:22:35.155Z,99.90
2018-07-11T04:24:39.146Z,99.90
2018-07-11T04:26:43.033Z,99.90
2018-07-11T04:28:47.067Z,99.90
2018-07-11T04:30:51.371Z,99.90
2018-07-11T04:32:55.339Z,99.90
2018-07-11T04:34:59.174Z,99.90
2018-07-11T04:37:03.148Z,99.90
2018-07-11T04:39:06.929Z,99.90
2018-07-11T04:41:10.913Z,99.90
2018-07-11T04:43:15.157Z,99.90
2018-07-11T04:45:19.160Z,99.90
2018-07-11T04:47:23.238Z,99.90
2018-07-11T04:49:27.570Z,99.90
2018-07-11T04:51:31.470Z,99.90
2018-07-11T04:53:35.616Z,99.90
2018-07-11T04:55:41.306Z,99.90
2018-07-11T04:57:45.836Z,99.90
2018-07-11T04:59:49.916Z,99.90
2018-07-11T05:01:53.999Z,99.90
2018-07-11T05:04:09.844Z,99.90
2018-07-11T05:06:13.837Z,99.90
2018-07-11T05:08:18.129Z,99.90
2018-07-11T05:10:22.228Z,99.90
2018-07-11T05:12:26.098Z,99.90
2018-07-11T05:14:30.012Z,99.90
2018-07-11T05:16:33.804Z,99.90
2018-07-11T05:18:37.718Z,99.90
2018-07-11T05:20:41.497Z,99.90
2018-07-11T05:22:45.338Z,99.90
2018-07-11T05:24:49.162Z,99.90
2018-07-11T05:26:53.541Z,99.90
2018-07-11T05:28:57.332Z,99.90
2018-07-11T05:31:01.382Z,99.90
2018-07-11T05:33:05.265Z,99.90
2018-07-11T05:35:09.185Z,99.90
2018-07-11T05:37:13.300Z,99.90
2018-07-11T05:39:17.178Z,99.90
2018-07-11T05:43:59.074Z,99.90
2018-07-11T05:46:02.875Z,99.90
2018-07-11T05:48:06.785Z,99.90
2018-07-11T05:50:10.582Z,99.90
2018-07-11T05:52:14.646Z,99.90
2018-07-11T05:54:18.366Z,99.90
2018-07-11T05:56:22.336Z,99.90
2018-07-11T05:58:26.126Z,99.90
2018-07-11T06:00:33.591Z,99.90
2018-07-11T06:02:37.592Z,99.90
2018-07-11T06:04:41.382Z,99.90
2018-07-11T06:06:45.347Z,99.90
2018-07-11T06:08:49.158Z,99.90
2018-07-11T06:10:53.022Z,99.90
2018-07-11T06:12:56.776Z,99.90
2018-07-11T06:15:00.735Z,99.90
2018-07-11T06:17:04.537Z,99.90
2018-07-11T06:19:14.329Z,99.90
2018-07-11T06:21:18.511Z,99.90
2018-07-11T06:23:22.319Z,99.90
2018-07-11T06:25:26.223Z,99.90
2018-07-11T06:27:30.030Z,99.90
2018-07-11T06:29:33.951Z,99.90
2018-07-11T06:31:37.762Z,99.90
2018-07-11T06:33:41.699Z,99.90
2018-07-11T06:35:45.491Z,99.90
2018-07-11T06:37:49.421Z,99.90
2018-07-11T06:39:53.248Z,99.90
2018-07-11T06:41:57.400Z,99.90
2018-07-11T06:44:01.298Z,99.90
2018-07-11T06:46:05.299Z,99.90
2018-07-11T06:48:09.077Z,99.90
2018-07-11T06:50:13.014Z,99.90
2018-07-11T06:52:17.045Z,99.90
2018-07-11T06:54:20.937Z,99.90
2018-07-11T06:56:24.719Z,99.90
2018-07-11T06:58:28.649Z,99.90
2018-07-11T07:00:32.458Z,99.90
2018-07-11T07:02:36.370Z,99.90
2018-07-11T07:04:40.190Z,99.90
2018-07-11T07:06:44.065Z,99.90
2018-07-11T07:08:47.841Z,99.90
2018-07-11T07:10:51.774Z,99.90
2018-07-11T07:12:55.573Z,99.90
2018-07-11T07:14:59.482Z,99.90
2018-07-11T07:17:03.307Z,99.90
2018-07-11T07:19:07.210Z,99.90
2018-07-11T07:21:11.027Z,99.90
2018-07-11T07:23:14.964Z,99.90
2018-07-11T07:25:18.774Z,99.90
2018-07-11T07:27:22.665Z,99.90
2018-07-11T07:29:26.466Z,99.90
2018-07-11T07:31:30.364Z,99.90
2018-07-11T07:33:34.188Z,99.90
2018-07-11T07:35:38.105Z,99.90
2018-07-11T07:37:41.941Z,99.90
2018-07-11T07:39:45.956Z,99.90
2018-07-11T07:41:49.813Z,99.90
2018-07-11T07:43:53.735Z,99.90
2018-07-11T07:45:57.542Z,99.90
2018-07-11T07:48:02.087Z,99.90
2018-07-11T07:50:09.740Z,99.90
2018-07-11T07:52:13.669Z,99.90
2018-07-11T07:54:17.516Z,99.90
2018-07-11T07:56:21.405Z,99.90
2018-07-11T07:58:25.308Z,99.90
2018-07-11T08:00:29.298Z,99.90
2018-07-11T08:02:33.118Z,99.90
2018-07-11T08:04:37.148Z,99.90
2018-07-11T08:06:41.120Z,99.90
2018-07-11T08:08:44.975Z,99.90
2018-07-11T08:10:48.719Z,99.90
2018-07-11T08:12:52.788Z,99.90
2018-07-11T08:14:56.579Z,99.90
2018-07-11T08:17:00.497Z,99.90
2018-07-11T08:19:04.339Z,99.90
2018-07-11T08:21:08.307Z,99.90
2018-07-11T08:23:24.930Z,99.90
2018-07-11T08:31:19.350Z,99.90
2018-07-11T08:34:35.244Z,98.10
2018-07-11T08:38:58.992Z,99.90
2018-07-11T08:43:22.850Z,99.90
2018-07-11T08:45:41.663Z,99.90
2018-07-11T08:50:00.606Z,99.90
2018-07-11T08:52:18.272Z,99.90
2018-07-11T08:54:37.499Z,99.90
2018-07-11T08:57:09.411Z,99.90
2018-07-11T09:01:32.207Z,98.60
2018-07-11T09:05:48.649Z,97.00
2018-07-11T09:10:06.399Z,95.30
2018-07-11T09:12:28.502Z,93.60
2018-07-11T09:14:42.311Z,94.50
2018-07-11T09:17:10.986Z,97.10
2018-07-11T09:19:30.211Z,94.00
2018-07-11T09:21:54.647Z,94.30
2018-07-11T09:24:36.819Z,95.50
2018-07-11T09:26:40.699Z,97.60
2018-07-11T09:28:44.558Z,94.50
2018-07-11T09:30:48.562Z,94.10
2018-07-11T09:32:52.410Z,94.40
2018-07-11T09:34:56.298Z,93.00
2018-07-11T09:37:00.160Z,94.00
2018-07-11T09:39:04.360Z,99.30
2018-07-11T09:41:23.702Z,95.80
2018-07-11T09:43:27.717Z,95.30
2018-07-11T09:45:31.589Z,92.80
2018-07-11T09:47:35.650Z,93.00
2018-07-11T09:49:39.667Z,94.20
2018-07-11T09:51:43.657Z,88.90
2018-07-11T09:53:47.456Z,94.80
2018-07-11T09:55:51.501Z,94.30
2018-07-11T09:57:55.369Z,92.00
2018-07-11T10:00:02.363Z,91.40
2018-07-11T10:02:06.322Z,90.80
2018-07-11T10:04:11.590Z,91.30
2018-07-11T10:06:15.508Z,90.00
2018-07-11T10:08:19.366Z,91.00
2018-07-11T10:10:23.308Z,89.90
2018-07-11T10:12:27.177Z,92.80
2018-07-11T10:14:31.152Z,91.90
2018-07-11T10:16:34.914Z,91.40
2018-07-11T10:18:39.163Z,91.10
2018-07-11T10:20:43.007Z,91.50
2018-07-11T10:22:47.131Z,89.40
2018-07-11T10:24:50.888Z,91.50
2018-07-11T10:26:54.886Z,90.70
2018-07-11T10:28:58.745Z,86.10
2018-07-11T10:31:02.717Z,91.50
2018-07-11T10:33:06.581Z,88.60
2018-07-11T10:35:10.593Z,84.70
2018-07-11T10:37:14.410Z,83.90
2018-07-11T10:39:18.350Z,88.40
2018-07-11T10:41:22.123Z,90.00
2018-07-11T10:43:26.147Z,87.40
2018-07-11T10:45:30.408Z,91.00
2018-07-11T10:47:34.392Z,92.20
2018-07-11T10:49:38.248Z,90.90
2018-07-11T10:51:42.263Z,85.50
2018-07-11T10:53:46.640Z,84.70
2018-07-11T10:55:50.553Z,86.20
2018-07-11T10:57:54.369Z,89.10
2018-07-11T10:59:58.308Z,88.10
2018-07-11T11:02:02.115Z,89.40
2018-07-11T11:04:06.101Z,91.10
2018-07-11T11:06:09.890Z,92.40
2018-07-11T11:08:13.835Z,91.60
2018-07-11T11:10:17.640Z,93.80
2018-07-11T11:12:21.537Z,91.10
2018-07-11T11:14:25.443Z,93.30
2018-07-11T11:16:29.473Z,93.30
2018-07-11T11:18:33.290Z,94.20
2018-07-11T11:20:37.189Z,93.90
2018-07-11T11:22:41.084Z,93.80
2018-07-11T11:24:45.028Z,94.30
2018-07-11T11:26:48.810Z,95.40
2018-07-11T11:28:52.844Z,95.00
2018-07-11T11:30:56.630Z,96.20
2018-07-11T11:33:00.569Z,95.10
2018-07-11T11:35:04.450Z,96.50
2018-07-11T11:37:08.320Z,96.50
2018-07-11T11:39:12.085Z,95.90
2018-07-11T11:41:16.132Z,96.20
2018-07-11T11:43:20.006Z,96.20
2018-07-11T11:45:24.068Z,95.40
2018-07-11T11:47:28.844Z,97.30
2018-07-11T11:49:32.741Z,95.50
2018-07-11T11:51:36.659Z,95.80
2018-07-11T11:53:40.594Z,95.70
2018-07-11T11:55:44.366Z,96.60
2018-07-11T11:57:48.471Z,97.50
2018-07-11T11:59:52.316Z,98.10
2018-07-11T12:01:56.300Z,98.00
2018-07-11T12:04:00.144Z,98.60
2018-07-11T12:06:04.091Z,98.30
2018-07-11T12:08:07.843Z,95.70
2018-07-11T12:10:11.866Z,97.60
2018-07-11T12:12:15.714Z,96.70
2018-07-11T12:14:19.666Z,99.50
2018-07-11T12:16:23.430Z,98.10
2018-07-11T12:18:27.582Z,98.80
2018-07-11T12:20:31.488Z,97.70
2018-07-11T12:22:35.413Z,99.00
2018-07-11T12:24:39.423Z,96.40
2018-07-11T12:26:43.451Z,96.10
2018-07-11T12:28:47.422Z,98.10
2018-07-11T12:30:51.608Z,96.70
2018-07-11T12:32:55.603Z,96.20
2018-07-11T12:34:59.587Z,96.20
2018-07-11T12:37:03.530Z,96.20
2018-07-11T12:39:07.492Z,97.20
2018-07-11T12:41:11.311Z,97.40
2018-07-11T12:43:21.920Z,96.90
2018-07-11T12:45:25.870Z,96.50
2018-07-11T12:47:35.020Z,96.70
2018-07-11T12:49:38.973Z,97.90
2018-07-11T12:51:42.893Z,97.20
2018-07-11T12:53:46.928Z,97.30
2018-07-11T12:55:50.908Z,97.70
2018-07-11T12:57:54.931Z,96.70
2018-07-11T12:59:58.759Z,97.20
2018-07-11T13:02:04.745Z,98.20
2018-07-11T13:04:08.691Z,98.20
2018-07-11T13:06:12.802Z,99.90
2018-07-11T13:08:18.515Z,99.90
2018-07-11T13:10:22.463Z,99.00
2018-07-11T13:12:26.349Z,99.00
2018-07-11T13:14:30.291Z,98.80
2018-07-11T13:16:34.106Z,99.10
2018-07-11T13:18:38.114Z,99.30
2018-07-11T13:20:46.419Z,99.90
2018-07-11T13:22:50.391Z,98.90
2018-07-11T13:24:54.207Z,99.00
2018-07-11T13:26:58.607Z,99.90
2018-07-11T13:29:02.489Z,99.80
2018-07-11T13:31:06.483Z,98.80
2018-07-11T13:33:10.484Z,99.90
2018-07-11T13:35:14.434Z,98.90
2018-07-11T13:37:18.276Z,99.00
2018-07-11T13:39:23.165Z,99.90
2018-07-11T13:41:27.072Z,99.80
2018-07-11T13:43:31.140Z,99.90
2018-07-11T13:45:34.967Z,99.90
2018-07-11T13:47:39.021Z,99.90
2018-07-11T13:49:42.918Z,99.90
2018-07-11T13:51:46.897Z,99.90
2018-07-11T13:53:50.756Z,99.90
2018-07-11T13:55:54.710Z,99.90
2018-07-11T13:57:59.887Z,99.90
2018-07-11T14:00:03.901Z,99.90
2018-07-11T14:02:07.794Z,99.90
2018-07-11T14:04:11.774Z,99.90
2018-07-11T14:06:15.725Z,99.90
2018-07-11T14:08:19.889Z,99.90
2018-07-11T14:10:23.755Z,99.90
2018-07-11T14:12:27.789Z,99.90
2018-07-11T14:14:32.233Z,99.90
2018-07-11T14:16:36.273Z,99.90
2018-07-11T14:18:41.842Z,99.90
2018-07-11T14:20:45.788Z,99.90
2018-07-11T14:22:49.713Z,99.90
2018-07-11T14:24:54.058Z,99.90
2018-07-11T14:26:58.000Z,99.90
2018-07-11T14:29:03.054Z,99.90
2018-07-11T14:31:07.204Z,99.90
2018-07-11T14:33:11.158Z,99.90
2018-07-11T14:35:15.813Z,99.90
2018-07-11T14:37:19.783Z,99.90
2018-07-11T14:39:23.716Z,99.90
2018-07-11T14:41:27.566Z,99.90
2018-07-11T14:43:31.637Z,99.90
2018-07-11T14:45:35.908Z,99.90
2018-07-11T14:47:45.349Z,99.90
2018-07-11T14:49:49.379Z,99.90
2018-07-11T14:51:53.240Z,99.90
2018-07-11T14:53:58.034Z,99.90
2018-07-11T14:56:02.148Z,99.90
2018-07-11T14:58:06.184Z,99.90
2018-07-11T15:00:10.125Z,99.90
2018-07-11T15:02:14.125Z,99.90
2018-07-11T15:04:19.781Z,99.90
2018-07-11T15:06:25.637Z,99.90
2018-07-11T15:08:29.649Z,99.90
2018-07-11T15:10:33.534Z,99.90
2018-07-11T15:12:37.554Z,99.90
2018-07-11T15:14:41.403Z,99.90
2018-07-11T15:16:45.383Z,99.90
2018-07-11T15:18:49.817Z,99.90
2018-07-11T15:20:54.646Z,99.90
2018-07-11T15:22:58.734Z,99.90
2018-07-11T15:25:02.779Z,99.90
2018-07-11T15:27:06.730Z,99.90
2018-07-11T15:29:14.050Z,99.90
2018-07-11T15:31:18.066Z,99.90
2018-07-11T15:33:22.459Z,99.90
2018-07-11T15:35:26.602Z,99.90
2018-07-11T15:37:30.444Z,99.90
2018-07-11T15:39:34.526Z,99.90
2018-07-11T15:41:38.412Z,99.90
2018-07-11T15:43:42.615Z,99.90
2018-07-11T15:45:46.627Z,99.90
2018-07-11T15:47:51.026Z,99.90
2018-07-11T15:49:55.283Z,99.90
2018-07-11T15:51:59.268Z,99.90
2018-07-11T15:54:03.125Z,99.90
2018-07-11T15:56:07.139Z,99.90
2018-07-11T15:58:13.756Z,99.90
2018-07-11T16:00:18.709Z,99.90
2018-07-11T16:02:22.701Z,99.90
2018-07-11T16:04:32.578Z,99.90
2018-07-11T16:06:37.157Z,99.90
2018-07-11T16:08:47.363Z,99.90
2018-07-11T16:10:52.703Z,99.90
2018-07-11T16:12:56.719Z,99.90
2018-07-11T16:15:00.579Z,99.90
2018-07-11T16:17:04.591Z,99.90
2018-07-11T16:19:08.509Z,99.90
2018-07-11T16:21:12.445Z,99.90
2018-07-11T16:23:16.507Z,99.90
2018-07-11T16:25:20.595Z,99.90
2018-07-11T16:27:24.483Z,99.90
2018-07-11T16:29:28.489Z,99.90
2018-07-11T16:31:32.497Z,99.90
2018-07-11T16:33:36.574Z,99.90
2018-07-11T16:35:40.462Z,99.90
2018-07-11T16:37:44.444Z,99.90
2018-07-11T16:39:48.448Z,99.90
2018-07-11T16:42:12.248Z,99.90
2018-07-11T16:44:16.317Z,99.90
2018-07-11T16:46:20.504Z,99.90
2018-07-11T16:48:24.494Z,99.90
2018-07-11T16:50:28.435Z,99.90
2018-07-11T16:52:32.328Z,99.90
2018-07-11T16:54:36.253Z,99.90
2018-07-11T16:56:40.367Z,99.90
2018-07-11T16:58:51.682Z,99.90
2018-07-11T17:00:56.013Z,99.90
2018-07-11T17:03:10.391Z,99.90
2018-07-11T17:05:19.538Z,99.90
2018-07-11T17:07:25.834Z,99.90
2018-07-11T17:09:34.566Z,99.90
2018-07-11T17:11:38.775Z,99.90
2018-07-11T17:13:47.136Z,99.90
2018-07-11T17:15:53.035Z,99.90
2018-07-11T17:17:58.388Z,99.90
2018-07-11T17:20:07.148Z,99.90
2018-07-11T17:22:11.254Z,99.90
2018-07-11T17:24:18.211Z,99.90
2018-07-11T17:26:25.401Z,99.90
2018-07-11T17:28:29.792Z,99.90
2018-07-11T17:30:38.437Z,99.90
2018-07-11T17:32:42.887Z,99.90
2018-07-11T17:34:46.944Z,99.90
2018-07-11T17:37:00.143Z,99.90
2018-07-11T17:39:05.031Z,99.90
2018-07-11T17:41:09.063Z,99.90
2018-07-11T17:43:13.224Z,99.90
2018-07-11T17:45:19.395Z,99.90
2018-07-11T17:47:24.719Z,99.90
2018-07-11T17:49:33.117Z,99.90
2018-07-11T17:51:46.875Z,99.90
2018-07-11T17:53:55.171Z,99.90
2018-07-11T17:56:06.851Z,99.90
2018-07-11T17:58:10.960Z,99.90
2018-07-11T18:00:19.434Z,99.90
2018-07-11T18:02:30.515Z,99.90
2018-07-11T18:04:42.335Z,99.90
2018-07-11T18:07:39.619Z,99.90
2018-07-11T18:09:56.317Z,99.90
2018-07-11T18:12:10.820Z,99.90
2018-07-11T18:14:17.099Z,99.90
2018-07-11T18:16:54.740Z,99.90
2018-07-11T18:19:17.966Z,99.90
2018-07-11T18:21:30.622Z,99.90
2018-07-11T18:23:41.156Z,99.90
2018-07-11T18:25:56.579Z,99.90
2018-07-11T18:28:10.991Z,99.90
2018-07-11T18:30:38.675Z,99.90
2018-07-11T18:32:54.363Z,99.90
2018-07-11T18:36:09.402Z,99.90
2018-07-11T18:38:20.715Z,99.90
2018-07-11T18:40:43.324Z,99.90
2018-07-11T18:42:55.430Z,99.90
2018-07-11T18:47:15.443Z,99.90
2018-07-11T18:49:32.142Z,99.90
2018-07-11T18:53:12.970Z,99.90
2018-07-11T18:55:25.315Z,99.90
2018-07-11T18:58:38.729Z,99.90
2018-07-11T19:00:44.568Z,99.90
2018-07-11T19:03:34.579Z,99.90
2018-07-11T19:05:56.381Z,99.90
2018-07-11T19:08:15.184Z,99.90
2018-07-11T19:10:50.683Z,99.90
2018-07-11T19:13:00.151Z,99.90
2018-07-11T19:15:11.814Z,99.90
2018-07-11T19:17:28.217Z,99.90
2018-07-11T19:19:37.400Z,99.90
2018-07-11T19:23:51.888Z,99.90
2018-07-11T19:26:06.263Z,99.90
2018-07-11T19:28:49.326Z,99.90
2018-07-11T19:31:02.547Z,99.90
2018-07-11T19:33:20.688Z,99.90
2018-07-11T19:37:41.073Z,99.90
2018-07-11T19:39:57.987Z,99.90
2018-07-11T19:44:20.943Z,99.90
2018-07-11T19:46:37.437Z,99.90
2018-07-11T19:48:55.772Z,99.90
2018-07-11T19:51:10.876Z,99.90
2018-07-11T19:53:54.584Z,99.90
2018-07-11T19:56:07.494Z,99.90
2018-07-11T19:58:11.572Z,99.90
2018-07-11T20:00:15.562Z,99.90
2018-07-11T20:02:19.840Z,99.90
2018-07-11T20:04:24.237Z,99.90
2018-07-11T20:06:28.299Z,99.90
2018-07-11T20:08:32.316Z,99.90
2018-07-11T20:10:36.558Z,99.90
2018-07-11T20:12:40.588Z,99.90
2018-07-11T20:14:44.691Z,99.90
2018-07-11T20:16:48.642Z,99.90
2018-07-11T20:18:53.154Z,99.90
2018-07-11T20:20:57.203Z,99.90
2018-07-11T20:23:01.184Z,99.90
2018-07-11T20:25:05.297Z,99.90
2018-07-11T20:27:09.293Z,99.90
2018-07-11T20:29:13.621Z,99.90
2018-07-11T20:31:17.815Z,99.90
2018-07-11T20:33:21.710Z,99.90
2018-07-11T20:35:25.733Z,99.90
2018-07-11T20:37:29.738Z,99.90
2018-07-11T20:39:33.915Z,99.90
2018-07-11T20:41:38.406Z,99.90
2018-07-11T20:43:42.985Z,99.90
2018-07-11T20:45:46.805Z,99.90
2018-07-11T20:47:52.170Z,99.90
2018-07-11T20:49:56.333Z,99.90
2018-07-11T20:52:00.149Z,99.90
2018-07-11T20:54:04.248Z,99.90
2018-07-11T20:56:08.058Z,99.90
2018-07-11T20:58:23.226Z,99.90
2018-07-11T21:00:39.884Z,99.90
2018-07-11T21:03:04.070Z,99.90
2018-07-11T21:05:46.390Z,99.90
2018-07-11T21:08:01.354Z,99.90
2018-07-11T21:13:24.309Z,99.90
2018-07-11T21:17:16.715Z,99.90
2018-07-11T21:19:20.856Z,99.90
2018-07-11T21:21:24.869Z,99.90
2018-07-11T21:23:29.221Z,99.90
2018-07-11T21:25:33.254Z,99.90
2018-07-11T21:27:37.328Z,99.90
2018-07-11T21:29:41.231Z,99.90
2018-07-11T21:31:45.193Z,99.90
2018-07-11T21:33:49.064Z,99.90
2018-07-11T21:35:52.999Z,99.90
2018-07-11T21:37:57.138Z,99.90
2018-07-11T21:40:01.183Z,99.90
2018-07-11T21:42:05.012Z,99.90
2018-07-11T21:44:09.062Z,99.90
2018-07-11T21:46:13.792Z,99.90
2018-07-11T21:48:17.728Z,99.90
2018-07-11T21:50:21.590Z,99.90
2018-07-11T21:52:25.557Z,99.90
2018-07-11T21:54:29.430Z,99.90
2018-07-11T21:56:33.396Z,99.90
2018-07-11T21:58:37.252Z,99.90
2018-07-11T22:00:41.632Z,99.90
2018-07-11T22:02:45.474Z,99.90
2018-07-11T22:04:49.506Z,99.90
2018-07-11T22:06:53.320Z,99.90
2018-07-11T22:08:57.348Z,99.90
2018-07-11T22:11:01.325Z,99.90
2018-07-11T22:13:05.531Z,99.90
2018-07-11T22:15:09.359Z,99.90
2018-07-11T22:17:24.192Z,99.90
2018-07-11T22:19:34.660Z,99.90
2018-07-11T22:21:37.303Z,99.90
2018-07-11T22:23:40.036Z,99.90
2018-07-11T22:25:42.675Z,99.90
2018-07-11T22:27:45.302Z,99.90
2018-07-11T22:29:47.955Z,99.90
2018-07-11T22:31:50.675Z,99.90
2018-07-11T22:33:53.353Z,99.90
2018-07-11T22:35:55.885Z,99.90
2018-07-11T22:37:58.509Z,99.90
2018-07-11T22:40:01.068Z,99.90
2018-07-11T22:42:03.682Z,99.90
2018-07-11T22:44:06.229Z,99.90
2018-07-11T22:46:08.908Z,99.90
2018-07-11T22:48:11.423Z,99.90
2018-07-11T22:50:14.101Z,99.90
2018-07-11T22:52:16.655Z,99.90
2018-07-11T22:54:19.260Z,99.90
2018-07-11T22:56:21.764Z,99.90
2018-07-11T22:58:24.383Z,99.90
2018-07-11T23:00:26.888Z,99.90
2018-07-11T23:02:29.610Z,99.90
2018-07-11T23:04:32.154Z,99.90
2018-07-11T23:06:34.796Z,99.90
2018-07-11T23:08:37.431Z,99.90
2018-07-11T23:10:40.044Z,99.90
2018-07-11T23:12:42.652Z,99.90
2018-07-11T23:14:45.305Z,99.90
2018-07-11T23:16:47.920Z,99.90
2018-07-11T23:18:50.590Z,99.90
2018-07-11T23:20:53.128Z,99.90
2018-07-11T23:22:55.785Z,99.90
2018-07-11T23:24:58.308Z,99.90
2018-07-11T23:27:00.967Z,99.90
2018-07-11T23:29:03.675Z,99.90
2018-07-11T23:31:06.281Z,99.90
2018-07-11T23:33:08.794Z,99.90
2018-07-11T23:35:11.433Z,99.90
2018-07-11T23:37:13.969Z,99.90
2018-07-11T23:39:16.612Z,99.90
2018-07-11T23:41:19.164Z,99.90
2018-07-11T23:43:21.803Z,99.90
2018-07-11T23:45:24.325Z,99.90
2018-07-11T23:47:26.972Z,99.90
2018-07-11T23:49:29.480Z,99.90
2018-07-11T23:51:32.078Z,99.90
2018-07-11T23:53:34.591Z,99.90
2018-07-11T23:55:37.255Z,99.90
2018-07-11T23:57:39.753Z,99.90
2018-07-11T23:59:42.372Z,99.90
